Time;durP1;ratioP1;P1;durP2;ratioP2;P2;SDS_P1;SDS_P2;PMS_P1;PMS_P2;Temp;Humidity;BMP_temperature;BMP_pressure;BME280_temperature;BME280_humidity;BME280_pressure;Samples;Min_cycle;Max_cycle;Signal;HPM_P1;HPM_P2
2023/04/28 00:00:14;;;;;;;;;20.40;19.40;;;;;9.08;31.85;99853.22;5102156;28;8860;-78
2023/04/28 00:03:03;;;;;;;;;18.00;17.40;;;;;9.11;31.62;99854.97;5041549;28;9099;-79
2023/04/28 00:05:32;;;;;;;;;17.80;17.80;;;;;9.11;32.27;99861.09;5068993;28;8850;-80
2023/04/28 00:08:02;;;;;;;;;17.40;17.00;;;;;9.12;32.22;99861.94;5082130;28;8840;-80
2023/04/28 00:10:31;;;;;;;;;18.00;17.40;;;;;9.11;31.99;99862.84;5089067;28;8843;-81
2023/04/28 00:13:01;;;;;;;;;16.00;16.00;;;;;9.10;31.80;99866.34;5039185;28;8909;-79
2023/04/28 00:15:30;;;;;;;;;16.40;16.40;;;;;9.12;31.53;99867.19;5089524;28;8848;-79
2023/04/28 00:17:59;;;;;;;;;15.60;15.60;;;;;9.10;31.31;99863.72;5090389;28;8852;-79
2023/04/28 00:20:28;;;;;;;;;18.00;15.40;;;;;9.09;31.60;99867.25;5088196;28;8851;-80
2023/04/28 00:22:56;;;;;;;;;21.20;17.40;;;;;9.10;31.05;99864.63;5080440;28;8823;-78
2023/04/28 00:25:25;;;;;;;;;15.60;15.60;;;;;9.10;31.46;99868.97;5050900;28;8854;-78
2023/04/28 00:27:54;;;;;;;;;22.00;18.40;;;;;9.09;31.08;99875.97;5068537;28;8892;-80
2023/04/28 00:30:25;;;;;;;;;21.60;20.60;;;;;9.10;32.05;99882.97;5084083;28;8862;-80
2023/04/28 00:32:53;;;;;;;;;26.00;21.40;;;;;9.10;32.32;99880.34;5069268;28;8988;-80
2023/04/28 00:35:23;;;;;;;;;24.60;24.40;;;;;9.10;32.32;99882.06;5085124;28;8822;-82
2023/04/28 00:37:51;;;;;;;;;28.75;25.50;;;;;9.10;32.95;99889.94;5091210;28;8935;-80
2023/04/28 00:40:21;;;;;;;;;20.60;18.20;;;;;9.04;31.93;99891.75;5069335;28;8884;-78
2023/04/28 00:42:51;;;;;;;;;26.25;25.75;;;;;9.05;33.88;99887.38;5069941;28;8931;-79
2023/04/28 00:45:20;;;;;;;;;29.75;29.00;;;;;9.04;33.96;99890.88;5089047;28;8848;-80
2023/04/28 00:47:49;;;;;;;;;35.50;32.75;;;;;9.03;34.94;99886.53;5088132;28;8867;-81
2023/04/28 00:50:19;;;;;;;;;37.25;36.25;;;;;9.04;35.16;99896.13;5087706;28;8864;-79
2023/04/28 00:52:48;;;;;;;;;32.00;32.00;;;;;8.57;36.41;99908.75;5087997;28;8978;-78
2023/04/28 00:55:17;;;;;;;;;11.00;6.00;;;;;8.19;37.94;99903.69;5088998;28;8867;-78
2023/04/28 00:57:46;;;;;;;;;41.00;37.75;;;;;7.73;39.67;99909.13;5035802;28;8870;-78
2023/04/28 01:00:16;;;;;;;;;48.50;39.25;;;;;7.78;39.93;99915.19;5089236;28;9612;-79
2023/04/28 01:02:45;;;;;;;;;44.00;38.25;;;;;7.73;39.45;99911.75;5088135;28;8836;-78
2023/04/28 01:05:17;;;;;;;;;31.00;30.25;;;;;7.78;39.34;99921.34;5087611;28;8953;-79
2023/04/28 01:07:46;;;;;;;;;31.50;31.00;;;;;7.46;38.93;99913.56;5064738;28;8864;-79
2023/04/28 01:10:16;;;;;;;;;33.75;31.50;;;;;7.68;38.73;99919.59;5066092;28;8855;-79
2023/04/28 01:12:44;;;;;;;;;37.50;35.25;;;;;7.74;38.53;99913.47;5066269;28;8875;-80
2023/04/28 01:15:17;;;;;;;;;41.25;37.50;;;;;7.85;38.37;99925.66;5033675;28;8848;-79
2023/04/28 01:17:47;;;;;;;;;51.75;42.25;;;;;7.72;38.99;99921.34;5065787;28;8997;-81
2023/04/28 01:20:17;;;;;;;;;39.75;36.50;;;;;7.80;39.51;99922.19;5066371;28;9036;-79
2023/04/28 01:22:46;;;;;;;;;38.00;35.50;;;;;7.84;39.59;99930.91;5035396;28;8847;-79
2023/04/28 01:25:16;;;;;;;;;35.25;33.50;;;;;7.90;39.18;99916.94;5066016;28;8856;-79
2023/04/28 01:27:45;;;;;;;;;39.00;36.00;;;;;7.92;38.78;99923.03;4999202;28;8910;-79
2023/04/28 01:30:14;;;;;;;;;41.00;36.75;;;;;7.92;38.97;99921.25;5048950;28;8848;-80
2023/04/28 01:32:43;;;;;;;;;34.75;34.75;;;;;7.94;39.51;99927.38;5047140;28;8907;-79
2023/04/28 01:35:12;;;;;;;;;38.50;35.75;;;;;7.96;38.93;99929.97;5065352;28;8855;-79
2023/04/28 01:37:40;;;;;;;;;29.75;27.50;;;;;7.96;38.83;99929.97;5063985;28;8863;-79
2023/04/28 01:40:10;;;;;;;;;40.25;37.25;;;;;7.96;39.49;99927.38;5065700;28;9048;-81
2023/04/28 01:42:41;;;;;;;;;39.75;36.75;;;;;7.97;39.29;99926.50;5033228;28;9635;-80
2023/04/28 01:45:11;;;;;;;;;36.50;34.25;;;;;7.93;39.27;99925.63;5061596;28;8873;-78
2023/04/28 01:47:39;;;;;;;;;36.50;36.00;;;;;7.92;38.64;99930.88;5080906;28;8835;-79
2023/04/28 01:50:09;;;;;;;;;38.25;36.00;;;;;7.92;38.99;99929.13;5086990;28;8873;-78
2023/04/28 01:52:37;;;;;;;;;37.75;34.75;;;;;7.93;38.50;99935.22;5086201;28;8848;-80
2023/04/28 01:55:07;;;;;;;;;38.50;34.00;;;;;7.90;38.81;99932.63;5036267;28;8856;-80
2023/04/28 01:57:37;;;;;;;;;39.25;34.50;;;;;7.88;39.00;99933.50;5069797;28;8843;-78
2023/04/28 02:00:09;;;;;;;;;31.50;30.25;;;;;7.85;38.41;99936.16;5086609;28;8863;-80
2023/04/28 02:02:49;;;;;;;;;28.25;26.50;;;;;7.76;38.41;99933.56;5087777;28;8843;-79
2023/04/28 02:05:18;;;;;;;;;28.75;27.25;;;;;7.72;38.64;99934.44;5088155;28;8882;-78
2023/04/28 02:07:48;;;;;;;;;30.75;27.50;;;;;7.72;38.56;99934.44;5081225;28;9718;-80
2023/04/28 02:10:17;;;;;;;;;34.00;31.25;;;;;7.71;38.73;99935.31;5099719;28;8835;-79
2023/04/28 02:12:46;;;;;;;;;33.75;30.00;;;;;7.70;38.57;99936.16;5080316;28;8863;-79
2023/04/28 02:15:16;;;;;;;;;30.00;26.50;;;;;7.68;38.33;99933.56;5086857;28;8956;-77
2023/04/28 02:17:45;;;;;;;;;33.50;31.25;;;;;7.66;38.32;99929.19;5086525;28;8878;-79
2023/04/28 02:20:16;;;;;;;;;33.50;31.50;;;;;7.67;38.81;99941.44;5087862;28;8844;-78
2023/04/28 02:22:45;;;;;;;;;31.50;31.00;;;;;7.66;38.12;99940.56;5055328;28;8843;-80
2023/04/28 02:25:14;;;;;;;;;36.25;30.25;;;;;7.66;38.61;99942.28;5088424;28;8882;-79
2023/04/28 02:27:43;;;;;;;;;35.00;33.50;;;;;7.64;38.73;99933.56;5036545;28;8893;-79
2023/04/28 02:30:13;;;;;;;;;35.50;33.50;;;;;7.62;39.03;99938.81;5086968;28;8852;-81
2023/04/28 02:32:43;;;;;;;;;30.75;29.00;;;;;7.62;38.62;99938.81;5088214;28;8931;-79
2023/04/28 02:35:12;;;;;;;;;38.50;32.25;;;;;7.61;38.60;99938.84;5086887;28;8863;-79
2023/04/28 02:37:41;;;;;;;;;17.00;13.25;;;;;7.60;38.67;99939.69;5085762;28;8855;-79
2023/04/28 02:40:11;;;;;;;;;34.50;31.00;;;;;7.60;38.87;99939.69;5087145;28;8875;-79
2023/04/28 02:42:40;;;;;;;;;31.00;29.00;;;;;7.57;37.85;99931.84;5020376;28;9459;-79
2023/04/28 02:45:09;;;;;;;;;36.00;35.75;;;;;7.54;38.09;99935.34;5086523;28;8851;-79
2023/04/28 02:47:38;;;;;;;;;34.50;34.00;;;;;7.54;38.98;99937.97;5086420;28;8847;-79
2023/04/28 02:50:09;;;;;;;;;35.25;34.00;;;;;7.56;38.56;99938.81;5087746;28;8851;-79
2023/04/28 02:52:38;;;;;;;;;35.50;25.50;;;;;7.54;38.73;99937.09;5120386;28;8852;-78
2023/04/28 02:55:08;;;;;;;;;32.75;31.25;;;;;7.51;38.20;99940.56;5088043;28;8843;-78
2023/04/28 02:57:36;;;;;;;;;30.75;30.75;;;;;7.50;38.16;99936.22;5070708;28;8844;-78
2023/04/28 03:00:07;;;;;;;;;37.25;33.75;;;;;7.50;38.59;99935.38;5087358;28;8848;-78
2023/04/28 03:02:43;;;;;;;;;36.00;31.00;;;;;7.47;38.65;99938.84;5087235;28;8876;-82
2023/04/28 03:05:14;;;;;;;;;29.00;27.50;;;;;7.44;38.50;99937.13;5123239;27;8961;-80
2023/04/28 03:07:43;;;;;;;;;36.50;31.50;;;;;7.44;38.47;99933.63;5089449;28;8852;-79
2023/04/28 03:10:12;;;;;;;;;35.00;31.25;;;;;7.39;37.91;99933.63;5091052;28;8840;-79
2023/04/28 03:12:41;;;;;;;;;31.25;30.75;;;;;7.37;37.46;99943.22;5090861;28;8843;-81
2023/04/28 03:15:11;;;;;;;;;32.00;29.75;;;;;7.35;38.73;99941.50;5090400;28;8839;-79
2023/04/28 03:17:42;;;;;;;;;34.25;31.00;;;;;7.28;37.68;99943.22;5089902;28;8847;-79
2023/04/28 03:20:12;;;;;;;;;38.50;33.50;;;;;7.29;37.94;99942.38;5090093;28;8929;-79
2023/04/28 03:22:42;;;;;;;;;33.00;33.00;;;;;7.31;38.39;99940.63;5088650;28;8902;-80
2023/04/28 03:25:11;;;;;;;;;32.50;29.75;;;;;7.34;38.38;99944.97;5073816;28;8854;-77
2023/04/28 03:27:48;;;;;;;;;33.25;29.00;;;;;7.38;37.62;99950.22;5090289;28;8863;-79
2023/04/28 03:30:17;;;;;;;;;31.25;29.25;;;;;7.40;38.81;99947.56;5075592;28;8826;-78
2023/04/28 03:32:46;;;;;;;;;38.75;36.25;;;;;7.36;37.94;99946.72;5067972;28;9492;-79
2023/04/28 03:35:16;;;;;;;;;43.25;38.50;;;;;7.39;38.78;99951.06;5089708;28;8834;-79
2023/04/28 03:37:47;;;;;;;;;37.75;34.25;;;;;7.37;39.31;99952.81;5088056;28;8946;-79
2023/04/28 03:40:17;;;;;;;;;28.75;25.25;;;;;7.31;38.03;99956.31;5056037;28;8846;-78
2023/04/28 03:43:04;;;;;;;;;26.25;23.25;;;;;7.32;38.00;99954.56;5088800;28;9800;-81
2023/04/28 03:45:37;;;;;;;;;27.25;23.75;;;;;7.37;37.27;99958.06;5054898;28;8946;-80
2023/04/28 03:48:07;;;;;;;;;25.50;23.75;;;;;7.40;37.73;99961.53;5054814;28;8850;-79
2023/04/28 03:50:36;;;;;;;;;29.25;28.00;;;;;7.44;37.61;99963.28;5104759;28;8857;-78
2023/04/28 03:53:06;;;;;;;;;91.25;76.00;;;;;7.52;38.42;99967.63;5054852;28;8858;-80
2023/04/28 03:55:35;;;;;;;;;65.75;51.00;;;;;7.55;38.69;99958.03;5054845;28;9703;-79
2023/04/28 03:58:04;;;;;;;;;46.50;41.00;;;;;7.61;38.18;99962.38;5088099;28;8958;-79
2023/04/28 04:00:35;;;;;;;;;34.50;29.00;;;;;7.64;37.61;99964.97;5055437;28;8826;-80
2023/04/28 04:03:04;;;;;;;;;31.25;28.75;;;;;7.68;38.51;99971.94;5123492;27;8860;-78
2023/04/28 04:05:33;;;;;;;;;31.00;31.00;;;;;7.72;37.82;99970.19;5106475;28;8856;-82
2023/04/28 04:08:02;;;;;;;;;30.25;30.25;;;;;7.78;38.35;99975.38;5072978;28;8856;-81
2023/04/28 04:10:33;;;;;;;;;35.25;35.00;;;;;7.84;38.92;99978.03;5106283;28;8880;-82
2023/04/28 04:13:01;;;;;;;;;40.33;31.00;;;;;7.87;38.58;99973.66;5089168;28;8832;-79
2023/04/28 04:15:30;;;;;;;;;72.25;57.50;;;;;7.96;38.42;99980.56;5122647;27;8882;-79
2023/04/28 04:17:59;;;;;;;;;46.50;39.75;;;;;8.03;38.06;99981.44;5088820;28;8891;-79
2023/04/28 04:20:36;;;;;;;;;38.50;35.25;;;;;8.11;37.77;99979.66;5089677;28;8836;-79
2023/04/28 04:23:05;;;;;;;;;30.25;29.00;;;;;8.19;37.36;99977.00;5089276;28;8847;-80
2023/04/28 04:25:35;;;;;;;;;30.75;27.50;;;;;8.29;37.73;99969.97;5071832;28;8952;-80
2023/04/28 04:28:05;;;;;;;;;32.75;31.00;;;;;8.41;37.64;99973.44;5122551;27;8836;-80
2023/04/28 04:30:34;;;;;;;;;34.25;31.75;;;;;8.48;36.14;99974.28;5088933;28;8868;-79
2023/04/28 04:33:03;;;;;;;;;37.25;33.50;;;;;8.49;36.41;99975.16;5088862;28;8855;-79
2023/04/28 04:35:32;;;;;;;;;82.00;63.67;;;;;8.60;36.37;99981.22;5089674;28;8852;-79
2023/04/28 04:38:01;;;;;;;;;55.50;46.25;;;;;8.72;36.20;99977.63;5087457;28;9787;-78
2023/04/28 04:40:31;;;;;;;;;42.00;38.00;;;;;8.81;35.87;99983.69;5029754;28;8830;-79
2023/04/28 04:43:01;;;;;;;;;37.00;34.25;;;;;8.89;35.94;99986.25;5030535;28;8935;-78
2023/04/28 04:45:38;;;;;;;;;40.50;37.50;;;;;9.01;35.52;99982.69;5031482;28;8830;-81
2023/04/28 04:48:07;;;;;;;;;40.00;35.25;;;;;9.07;34.98;99990.50;5014098;28;8861;-78
2023/04/28 04:50:36;;;;;;;;;45.50;39.00;;;;;9.07;34.78;99987.03;5030428;28;9705;-81
2023/04/28 04:53:05;;;;;;;;;43.75;37.75;;;;;9.16;34.70;99985.19;5017697;28;8838;-79
2023/04/28 04:55:39;;;;;;;;;48.75;41.25;;;;;9.29;34.95;99982.44;5030560;28;8835;-78
2023/04/28 04:58:10;;;;;;;;;57.50;48.50;;;;;9.39;34.68;99987.59;5014985;28;8966;-78
2023/04/28 05:01:09;;;;;;;;;48.00;39.50;;;;;9.43;34.80;99991.94;4987710;28;8857;-79
2023/04/28 05:03:38;;;;;;;;;39.75;35.75;;;;;9.49;34.96;99992.78;4980068;28;8850;-79
2023/04/28 05:06:08;;;;;;;;;33.50;33.00;;;;;9.49;34.04;99995.41;4971410;28;8951;-80
2023/04/28 05:08:43;;;;;;;;;34.25;32.00;;;;;9.66;34.24;99990.88;4961101;28;9635;-80
2023/04/28 05:11:12;;;;;;;;;29.00;26.75;;;;;9.59;33.31;99995.34;4967804;28;8966;-79
2023/04/28 05:13:43;;;;;;;;;28.80;25.20;;;;;9.68;33.05;99998.75;4939468;28;8914;-79
2023/04/28 05:16:13;;;;;;;;;23.25;23.25;;;;;9.85;33.27;99990.69;4929321;29;8877;-76
2023/04/28 05:19:01;;;;;;;;;23.40;21.60;;;;;10.04;32.27;100000.09;4995037;28;8905;-76
2023/04/28 05:21:30;;;;;;;;;30.50;25.25;;;;;10.21;32.56;99990.25;4941398;28;8867;-75
2023/04/28 05:23:59;;;;;;;;;27.75;25.25;;;;;10.29;31.74;99990.19;4988464;28;8986;-76
2023/04/28 05:26:30;;;;;;;;;32.50;28.25;;;;;10.53;32.22;99982.84;4952047;28;8856;-77
2023/04/28 05:29:06;;;;;;;;;30.75;27.50;;;;;10.72;31.99;99986.09;5004342;28;8871;-76
2023/04/28 05:31:35;;;;;;;;;23.60;23.60;;;;;10.79;30.51;99983.38;4952775;28;8899;-75
2023/04/28 05:34:04;;;;;;;;;27.75;26.50;;;;;10.95;30.70;99985.78;4950595;28;8884;-76
2023/04/28 05:36:33;;;;;;;;;28.00;26.80;;;;;11.05;30.78;99981.22;4949377;28;8863;-77
2023/04/28 05:39:02;;;;;;;;;25.00;25.00;;;;;11.17;30.27;99986.31;4990830;28;8976;-76
2023/04/28 05:41:31;;;;;;;;;28.60;26.00;;;;;11.34;30.09;99992.16;5048766;28;8843;-76
2023/04/28 05:43:59;;;;;;;;;23.60;22.00;;;;;11.54;30.21;99983.91;5065533;28;8856;-75
2023/04/28 05:46:30;;;;;;;;;19.60;18.60;;;;;11.71;29.72;99974.81;5064101;28;8866;-75
2023/04/28 05:49:00;;;;;;;;;19.00;19.00;;;;;11.92;29.71;99986.78;5056817;28;8968;-75
2023/04/28 05:51:34;;;;;;;;;12.00;11.20;;;;;12.08;28.19;99989.97;5031099;28;8863;-75
2023/04/28 05:54:03;;;;;;;;;12.80;12.80;;;;;12.26;27.89;99981.69;5031136;28;8847;-76
2023/04/28 05:56:38;;;;;;;;;13.00;12.20;;;;;12.33;27.00;99991.22;5048496;28;8881;-77
2023/04/28 05:59:10;;;;;;;;;14.40;12.00;;;;;12.40;27.01;99988.44;5028326;28;8861;-76
2023/04/28 06:01:40;;;;;;;;;12.60;12.60;;;;;12.50;26.95;99979.41;5057373;28;8895;-76
2023/04/28 06:04:09;;;;;;;;;12.20;12.20;;;;;12.63;25.90;99982.66;5047716;28;8937;-73
2023/04/28 06:06:39;;;;;;;;;13.00;10.80;;;;;12.58;25.30;99982.75;5080862;28;8859;-73
2023/04/28 06:09:08;;;;;;;;;12.00;10.60;;;;;12.72;25.71;99987.72;5071843;28;8883;-76
2023/04/28 06:11:37;;;;;;;;;14.00;14.00;;;;;12.75;26.00;99990.31;5066974;28;8851;-75
2023/04/28 06:14:05;;;;;;;;;13.20;12.20;;;;;12.77;25.22;99990.22;5084311;28;8871;-75
2023/04/28 06:16:34;;;;;;;;;16.60;14.20;;;;;12.95;25.32;99995.13;5079717;28;8867;-74
2023/04/28 06:19:04;;;;;;;;;14.40;13.00;;;;;13.14;24.79;99994.69;5082253;28;8882;-75
2023/04/28 06:21:33;;;;;;;;;13.40;11.40;;;;;13.17;24.51;99994.63;5100757;28;8868;-75
2023/04/28 06:24:04;;;;;;;;;13.80;13.20;;;;;13.30;24.60;100001.34;5086804;28;8852;-74
2023/04/28 06:26:33;;;;;;;;;14.60;14.60;;;;;13.33;24.39;100000.38;5084898;28;8844;-76
2023/04/28 06:29:01;;;;;;;;;21.20;18.80;;;;;13.24;24.77;99993.56;5085582;28;8967;-74
2023/04/28 06:31:31;;;;;;;;;13.80;13.60;;;;;13.22;24.38;100001.53;5031562;28;8822;-75
2023/04/28 06:33:59;;;;;;;;;9.40;8.80;;;;;13.34;23.95;100004.78;5061269;28;9637;-75
2023/04/28 06:36:31;;;;;;;;;9.80;9.80;;;;;13.51;23.19;100003.41;5117668;28;9615;-75
2023/04/28 06:39:00;;;;;;;;;11.00;10.40;;;;;13.71;23.25;100004.66;5069235;28;8840;-75
2023/04/28 06:41:30;;;;;;;;;12.20;12.20;;;;;13.79;23.47;100001.81;5087726;28;8832;-75
2023/04/28 06:44:00;;;;;;;;;13.00;13.00;;;;;13.55;23.18;100006.00;5089091;28;8847;-76
2023/04/28 06:46:30;;;;;;;;;17.20;17.20;;;;;13.44;23.94;100003.63;5090698;28;8823;-77
2023/04/28 06:49:01;;;;;;;;;24.20;21.80;;;;;13.74;24.46;100006.38;5091888;28;8951;-77
2023/04/28 06:51:32;;;;;;;;;9.80;9.00;;;;;13.76;23.20;100000.13;5091844;28;8860;-77
2023/04/28 06:54:01;;;;;;;;;14.60;13.00;;;;;13.85;23.64;100005.22;5070356;28;8858;-78
2023/04/28 06:56:30;;;;;;;;;12.60;11.20;;;;;13.99;23.45;100002.16;5071429;28;8838;-76
2023/04/28 06:58:59;;;;;;;;;17.60;14.80;;;;;14.22;23.23;100003.31;5087116;28;8954;-76
2023/04/28 07:01:28;;;;;;;;;18.40;16.80;;;;;14.27;22.73;100004.91;5070323;28;9067;-75
2023/04/28 07:03:57;;;;;;;;;13.40;11.20;;;;;14.42;21.84;100011.53;5088096;28;8910;-76
2023/04/28 07:06:28;;;;;;;;;11.00;11.00;;;;;14.62;22.21;100004.75;5091345;28;8878;-76
2023/04/28 07:08:58;;;;;;;;;21.20;19.20;;;;;14.46;21.98;100004.38;5123061;27;8860;-75
2023/04/28 07:11:27;;;;;;;;;14.80;11.20;;;;;14.69;22.40;99995.72;5090780;28;8856;-76
2023/04/28 07:13:56;;;;;;;;;10.40;9.20;;;;;14.80;20.99;99990.16;5083223;28;8882;-76
2023/04/28 07:16:25;;;;;;;;;11.40;10.40;;;;;14.88;21.10;99995.19;5086392;28;8894;-76
2023/04/28 07:18:54;;;;;;;;;10.60;9.40;;;;;14.91;21.25;99992.47;5028707;28;8854;-75
2023/04/28 07:21:23;;;;;;;;;3.00;3.00;;;;;15.10;21.28;99985.66;5087226;28;8879;-76
2023/04/28 07:23:55;;;;;;;;;12.80;12.80;;;;;15.09;20.53;99989.19;5050763;28;8985;-77
2023/04/28 07:26:26;;;;;;;;;12.40;12.40;;;;;15.13;20.93;99990.84;5090924;28;9029;-75
2023/04/28 07:28:55;;;;;;;;;12.00;12.00;;;;;15.12;21.14;99985.59;5090087;28;8839;-76
2023/04/28 07:31:24;;;;;;;;;11.60;10.00;;;;;15.21;20.52;99993.25;5072261;28;8851;-77
2023/04/28 07:33:53;;;;;;;;;13.00;11.80;;;;;15.17;20.40;99987.19;5105837;28;8952;-76
2023/04/28 07:36:23;;;;;;;;;11.00;11.00;;;;;15.25;20.71;99982.50;5087720;28;8865;-74
2023/04/28 07:38:51;;;;;;;;;11.00;11.00;;;;;15.33;20.68;99990.19;5087984;28;8886;-76
2023/04/28 07:41:20;;;;;;;;;10.60;10.20;;;;;15.30;20.78;99995.56;5090223;28;8820;-74
2023/04/28 07:43:50;;;;;;;;;11.20;11.20;;;;;15.29;20.57;99993.00;5090271;28;9009;-78
2023/04/28 07:46:19;;;;;;;;;14.80;13.80;;;;;15.41;20.53;100000.50;5090095;28;8852;-77
2023/04/28 07:48:48;;;;;;;;;13.80;12.60;;;;;15.42;20.77;99989.00;5071092;28;8844;-77
2023/04/28 07:51:17;;;;;;;;;8.00;8.00;;;;;15.52;19.98;99990.41;5045462;28;9645;-76
2023/04/28 07:53:46;;;;;;;;;11.00;10.00;;;;;15.57;20.38;99996.44;5089572;28;9660;-74
2023/04/28 07:56:15;;;;;;;;;15.00;12.20;;;;;15.49;20.34;99990.53;5090022;28;8852;-76
2023/04/28 07:58:43;;;;;;;;;13.40;11.80;;;;;15.51;20.57;99993.13;5084558;28;8873;-77
2023/04/28 08:01:14;;;;;;;;;11.00;11.00;;;;;15.64;20.44;99995.34;5085646;28;8836;-73
2023/04/28 08:03:42;;;;;;;;;15.00;12.80;;;;;15.75;21.14;99999.38;5089121;28;8891;-74
2023/04/28 08:06:12;;;;;;;;;12.40;12.20;;;;;15.83;20.78;99986.72;5089478;28;8867;-76
2023/04/28 08:08:41;;;;;;;;;11.80;11.80;;;;;15.87;20.72;99976.88;5089521;28;8856;-76
2023/04/28 08:11:10;;;;;;;;;10.40;10.40;;;;;15.95;20.11;99980.13;5088741;28;8847;-75
2023/04/28 08:13:39;;;;;;;;;10.80;10.80;;;;;14.78;20.33;99984.91;5069730;28;8887;-75
2023/04/28 08:16:08;;;;;;;;;12.40;10.60;;;;;14.36;20.79;99985.28;5082909;28;8908;-76
2023/04/28 08:18:38;;;;;;;;;11.00;10.80;;;;;13.63;21.42;100004.00;5120717;27;8867;-75
2023/04/28 08:21:07;;;;;;;;;12.60;12.60;;;;;12.70;22.73;99995.66;5089089;28;8836;-75
2023/04/28 08:23:36;;;;;;;;;10.20;8.60;;;;;12.68;23.08;99996.59;5064438;28;8906;-76
2023/04/28 08:26:05;;;;;;;;;13.00;12.40;;;;;13.22;22.46;99998.00;5088703;28;8839;-73
2023/04/28 08:28:34;;;;;;;;;17.00;16.00;;;;;13.36;23.20;99998.53;5088881;28;8879;-73
2023/04/28 08:31:04;;;;;;;;;13.60;12.00;;;;;13.90;22.97;99997.13;5052732;28;8956;-75
2023/04/28 08:33:32;;;;;;;;;9.40;8.00;;;;;14.10;22.01;99993.94;5089220;28;8893;-74
2023/04/28 08:36:03;;;;;;;;;21.00;19.00;;;;;14.08;21.98;99991.34;5089033;28;8952;-74
2023/04/28 08:38:32;;;;;;;;;10.60;10.20;;;;;14.23;21.83;99987.41;5068788;28;8859;-75
2023/04/28 08:41:04;;;;;;;;;9.40;9.40;;;;;14.51;22.23;99983.06;5083255;28;8875;-76
2023/04/28 08:43:34;;;;;;;;;14.20;13.00;;;;;14.70;21.93;99983.34;5087913;28;8848;-74
2023/04/28 08:46:06;;;;;;;;;11.00;11.00;;;;;15.01;21.21;99983.31;5089495;28;8864;-77
2023/04/28 08:48:41;;;;;;;;;10.20;10.20;;;;;14.47;21.20;99987.59;5084576;28;8885;-76
2023/04/28 08:51:16;;;;;;;;;10.00;10.00;;;;;14.60;21.43;99983.66;5087879;28;8860;-73
2023/04/28 08:53:49;;;;;;;;;9.40;9.40;;;;;14.91;21.13;99982.75;5089298;28;8876;-76
2023/04/28 08:56:38;;;;;;;;;11.40;11.40;;;;;15.10;21.44;99971.56;5087853;28;8871;-78
2023/04/28 08:59:07;;;;;;;;;8.80;7.60;;;;;15.35;21.46;99966.28;5081731;28;8963;-76
2023/04/28 09:01:37;;;;;;;;;9.00;9.00;;;;;15.49;20.28;99963.16;5088104;28;9653;-76
2023/04/28 09:04:06;;;;;;;;;7.80;7.60;;;;;15.63;20.21;99956.50;5100976;28;8953;-74
2023/04/28 09:06:39;;;;;;;;;8.00;8.00;;;;;15.80;20.13;99953.25;5100036;28;8860;-76
2023/04/28 09:09:25;;;;;;;;;7.40;7.40;;;;;15.98;19.71;99956.13;5099370;28;9616;-74
2023/04/28 09:11:57;;;;;;;;;9.80;8.40;;;;;15.85;20.65;99955.75;5085256;28;8840;-76
2023/04/28 09:14:26;;;;;;;;;9.40;9.40;;;;;15.81;20.07;99954.09;5086749;28;8871;-75
2023/04/28 09:16:55;;;;;;;;;9.20;9.20;;;;;15.81;20.01;99947.03;5087696;28;8848;-77
2023/04/28 09:19:24;;;;;;;;;7.20;7.20;;;;;15.48;19.91;99943.75;5088091;28;8848;-76
2023/04/28 09:21:57;;;;;;;;;7.60;7.60;;;;;15.20;20.39;99949.13;5087601;28;8871;-75
2023/04/28 09:24:30;;;;;;;;;8.60;8.40;;;;;15.44;19.93;99934.19;5087900;28;8979;-75
2023/04/28 09:27:01;;;;;;;;;9.20;9.00;;;;;15.49;20.73;99936.66;5088230;28;8862;-75
2023/04/28 09:29:30;;;;;;;;;6.60;6.60;;;;;15.66;19.46;99928.16;5100972;28;8854;-75
2023/04/28 09:32:14;;;;;;;;;7.20;7.20;;;;;15.79;19.86;99929.44;5083570;28;8882;-77
2023/04/28 09:34:45;;;;;;;;;10.00;9.80;;;;;15.82;19.81;99914.28;5088841;28;9099;-75
2023/04/28 09:37:20;;;;;;;;;12.20;9.60;;;;;15.93;20.84;99918.34;5087726;28;8828;-74
2023/04/28 09:39:51;;;;;;;;;10.60;10.60;;;;;15.81;20.04;99909.03;5087645;28;9006;-74
2023/04/28 09:42:32;;;;;;;;;7.00;6.20;;;;;15.69;19.51;99913.00;5088854;28;8839;-76
2023/04/28 09:45:02;;;;;;;;;8.00;8.00;;;;;15.79;20.11;99908.22;5088583;28;8986;-75
2023/04/28 09:47:37;;;;;;;;;9.00;8.80;;;;;15.92;20.18;99911.31;5089076;28;8851;-77
2023/04/28 09:50:10;;;;;;;;;10.20;10.20;;;;;15.88;21.02;99901.75;5089027;28;8852;-78
2023/04/28 09:52:43;;;;;;;;;9.80;9.80;;;;;16.00;20.13;99904.81;5088416;28;8936;-75
2023/04/28 09:55:12;;;;;;;;;8.00;8.00;;;;;16.08;20.41;99901.84;5088228;28;8871;-76
2023/04/28 09:57:45;;;;;;;;;11.40;10.00;;;;;16.14;19.93;99908.72;5088161;28;8855;-75
2023/04/28 10:00:17;;;;;;;;;8.60;8.20;;;;;15.93;20.97;99911.25;5088846;28;8851;-76
2023/04/28 10:02:46;;;;;;;;;15.80;13.20;;;;;16.10;20.80;99900.00;5088145;28;8847;-78
2023/04/28 10:05:17;;;;;;;;;11.00;11.00;;;;;16.17;20.33;99897.97;5088450;28;9052;-76
2023/04/28 10:07:48;;;;;;;;;9.00;9.00;;;;;16.14;20.60;99893.66;5088188;28;8855;-75
2023/04/28 10:10:17;;;;;;;;;14.40;12.00;;;;;15.99;20.98;99896.91;5053297;28;8890;-77
2023/04/28 10:12:46;;;;;;;;;14.00;13.20;;;;;16.08;20.09;99899.19;5087057;28;8835;-76
2023/04/28 10:15:15;;;;;;;;;12.40;11.80;;;;;16.22;20.37;99890.69;5087810;28;9946;-77
2023/04/28 10:17:46;;;;;;;;;10.80;10.80;;;;;16.14;19.95;99879.53;5088546;28;8840;-76
2023/04/28 10:20:16;;;;;;;;;8.80;8.80;;;;;16.11;20.10;99871.69;5088220;28;8836;-76
2023/04/28 10:23:00;;;;;;;;;12.00;10.60;;;;;16.40;20.99;99875.88;5087585;28;8820;-74
2023/04/28 10:25:32;;;;;;;;;12.60;11.60;;;;;16.42;20.33;99879.31;5087519;28;8848;-76
2023/04/28 10:28:07;;;;;;;;;11.40;10.40;;;;;16.46;19.66;99862.38;5086757;28;8954;-77
2023/04/28 10:30:36;;;;;;;;;13.80;12.20;;;;;16.43;20.04;99857.16;5087873;28;8868;-75
2023/04/28 10:33:25;;;;;;;;;11.80;10.40;;;;;15.93;20.09;99857.38;5087905;28;8867;-76
2023/04/28 10:35:54;;;;;;;;;14.40;13.60;;;;;15.10;20.68;99855.06;5122462;28;8982;-75
2023/04/28 10:38:25;;;;;;;;;14.00;13.20;;;;;15.30;20.67;99854.34;5087169;28;8847;-77
2023/04/28 10:40:54;;;;;;;;;13.00;10.80;;;;;15.57;21.57;99853.34;5087971;28;9688;-77
2023/04/28 10:43:38;;;;;;;;;10.40;10.40;;;;;15.76;21.30;99853.56;5087256;28;8956;-76
2023/04/28 10:46:08;;;;;;;;;11.60;11.60;;;;;15.95;20.83;99858.16;5087996;28;8852;-76
2023/04/28 10:48:55;;;;;;;;;10.00;9.00;;;;;16.00;20.45;99849.13;5087845;28;8855;-76
2023/04/28 10:51:27;;;;;;;;;13.20;12.60;;;;;16.10;21.04;99856.72;5069873;28;8897;-74
2023/04/28 10:54:14;;;;;;;;;9.80;9.80;;;;;16.31;20.81;99847.91;5086816;28;8876;-76
2023/04/28 10:57:30;;;;;;;;;10.00;9.40;;;;;16.57;20.24;99851.34;5086648;28;8836;-77
2023/04/28 11:00:27;;;;;;;;;11.40;11.40;;;;;16.70;19.52;99849.03;5087532;28;8851;-78
2023/04/28 11:02:57;;;;;;;;;11.60;10.80;;;;;16.74;19.51;99845.34;5087745;28;8859;-77
2023/04/28 11:05:27;;;;;;;;;12.00;10.60;;;;;16.94;19.77;99841.81;5086334;28;8843;-74
2023/04/28 11:08:32;;;;;;;;;10.40;10.00;;;;;17.25;19.33;99830.78;5086804;28;8867;-76
2023/04/28 11:11:16;;;;;;;;;10.20;9.80;;;;;17.46;19.71;99833.41;5087878;28;8851;-75
2023/04/28 11:13:46;;;;;;;;;12.60;12.20;;;;;17.58;19.08;99827.53;5087534;28;8860;-77
2023/04/28 11:16:18;;;;;;;;;15.00;15.00;;;;;17.86;19.59;99813.81;5087604;28;8859;-74
2023/04/28 11:18:52;;;;;;;;;15.20;14.00;;;;;18.08;19.28;99805.72;5087385;28;9727;-76
2023/04/28 11:21:25;;;;;;;;;15.00;15.00;;;;;18.15;19.48;99808.94;5087588;28;8847;-77
2023/04/28 11:23:53;;;;;;;;;13.40;13.40;;;;;18.24;19.37;99812.97;5086477;28;9006;-76
2023/04/28 11:26:24;;;;;;;;;12.20;11.80;;;;;18.40;18.94;99813.91;5088960;28;8918;-75
2023/04/28 11:28:54;;;;;;;;;14.60;12.20;;;;;18.60;18.41;99810.25;5091182;28;8848;-76
2023/04/28 11:31:25;;;;;;;;;8.60;8.20;;;;;18.63;18.77;99823.44;5091032;28;9009;-75
2023/04/28 11:33:59;;;;;;;;;16.60;12.40;;;;;18.53;18.30;99830.13;5123873;27;9108;-75
2023/04/28 11:36:31;;;;;;;;;13.40;12.20;;;;;18.63;18.26;99823.44;5055184;28;8876;-77
2023/04/28 11:39:00;;;;;;;;;12.20;11.60;;;;;19.01;17.81;99822.47;5089445;28;8977;-76
2023/04/28 11:41:31;;;;;;;;;14.00;14.00;;;;;18.86;17.52;99816.97;5090784;28;8980;-75
2023/04/28 11:44:00;;;;;;;;;10.60;10.20;;;;;19.25;17.60;99817.63;5090916;28;8851;-76
2023/04/28 11:46:29;;;;;;;;;18.60;15.40;;;;;19.46;17.48;99810.28;5090760;28;8839;-76